Time;durP1;ratioP1;P1;durP2;ratioP2;P2;SDS_P1;SDS_P2;PMS_P1;PMS_P2;Temp;Humidity;BMP_temperature;BMP_pressure;BME280_temperature;BME280_humidity;BME280_pressure;Samples;Min_cycle;Max_cycle;Signal;HPM_P1;HPM_P2
2021/09/29 00:00:57;;;;;;;6.27;5.40;;;;;;;11.11;84.47;101157.63;5107017;28;20198;-82
2021/09/29 00:03:23;;;;;;;6.00;5.40;;;;;;;11.09;84.55;101157.75;5100413;28;20659;-82
2021/09/29 00:05:50;;;;;;;6.87;6.00;;;;;;;11.08;84.55;101157.84;5118127;28;20198;-81
2021/09/29 00:08:16;;;;;;;7.60;5.73;;;;;;;11.08;84.68;101149.84;5119106;28;20219;-80
2021/09/29 00:10:44;;;;;;;9.07;5.90;;;;;;;11.06;84.72;101157.91;5119464;28;20207;-81
2021/09/29 00:13:12;;;;;;;8.37;5.70;;;;;;;11.05;84.77;101156.19;5119494;28;20203;-81
2021/09/29 00:15:38;;;;;;;8.13;6.30;;;;;;;11.05;84.88;101156.19;5118723;28;20222;-80
2021/09/29 00:18:05;;;;;;;9.60;6.20;;;;;;;11.08;84.97;101158.69;5119734;28;20234;-81
2021/09/29 00:20:32;;;;;;;7.60;6.27;;;;;;;11.09;85.12;101160.41;5117587;28;20210;-81
2021/09/29 00:22:59;;;;;;;6.73;5.60;;;;;;;11.11;85.08;101149.63;5117842;28;20207;-83
2021/09/29 00:25:25;;;;;;;8.13;6.40;;;;;;;11.12;85.14;101162.00;5118226;28;20212;-82
2021/09/29 00:27:53;;;;;;;7.70;5.80;;;;;;;11.13;85.46;101148.59;5117721;28;20216;-83
2021/09/29 00:30:20;;;;;;;7.77;6.17;;;;;;;11.14;85.30;101158.31;5118095;28;20207;-83
2021/09/29 00:32:47;;;;;;;8.00;5.20;;;;;;;11.16;85.36;101155.56;5117704;28;20196;-82
2021/09/29 00:35:15;;;;;;;8.77;5.97;;;;;;;11.18;85.44;101151.00;5112661;28;20580;-82
2021/09/29 00:37:42;;;;;;;6.17;5.00;;;;;;;11.17;85.36;101148.44;5097372;28;20250;-82
2021/09/29 00:40:10;;;;;;;6.37;4.93;;;;;;;11.16;85.43;101150.25;5097591;28;20201;-82
2021/09/29 00:42:37;;;;;;;6.87;5.07;;;;;;;11.13;85.30;101156.59;5097978;28;20624;-82
2021/09/29 00:45:07;;;;;;;9.43;5.10;;;;;;;11.08;85.11;101156.03;5096389;28;20231;-82
2021/09/29 00:47:34;;;;;;;8.53;5.23;;;;;;;11.03;85.09;101149.22;5099087;28;20694;-81
2021/09/29 00:50:03;;;;;;;6.70;4.80;;;;;;;10.99;85.11;101148.53;5097194;28;20205;-80
2021/09/29 00:52:30;;;;;;;5.93;4.67;;;;;;;10.96;85.09;101146.03;5108207;28;20214;-81
2021/09/29 00:54:57;;;;;;;6.03;4.33;;;;;;;10.96;85.18;101143.38;5101773;28;20204;-81
2021/09/29 00:57:24;;;;;;;6.47;4.70;;;;;;;10.97;85.16;101144.25;5097694;28;20221;-81
2021/09/29 00:59:51;;;;;;;7.50;5.20;;;;;;;10.97;84.96;101129.13;5103847;28;20607;-81
2021/09/29 01:02:21;;;;;;;6.97;4.37;;;;;;;10.98;85.18;101135.31;5116378;28;20196;-81
2021/09/29 01:04:48;;;;;;;5.50;4.43;;;;;;;10.98;84.94;101132.63;5111504;28;20204;-81
2021/09/29 01:07:22;;;;;;;7.50;5.00;;;;;;;10.98;84.94;101128.16;5096719;28;20220;-82
2021/09/29 01:09:58;;;;;;;5.43;4.03;;;;;;;10.99;84.70;101132.56;5096150;28;20209;-81
2021/09/29 01:12:32;;;;;;;7.53;4.60;;;;;;;10.96;84.53;101123.88;5096249;28;20204;-82
2021/09/29 01:15:05;;;;;;;6.13;4.80;;;;;;;10.92;84.35;101123.22;5103144;28;20240;-83
2021/09/29 01:17:36;;;;;;;4.70;4.27;;;;;;;10.91;84.29;101120.63;5115774;28;20222;-83
2021/09/29 01:20:07;;;;;;;5.87;4.53;;;;;;;10.88;84.31;101116.31;5114001;28;20194;-83
2021/09/29 01:22:50;;;;;;;12.67;5.20;;;;;;;10.88;84.44;101115.47;5099784;28;20638;-82
2021/09/29 01:25:23;;;;;;;7.33;4.70;;;;;;;10.88;84.61;101115.47;5098700;28;20191;-82
2021/09/29 01:27:51;;;;;;;6.83;4.73;;;;;;;10.89;84.86;101110.06;5096044;28;20238;-83
2021/09/29 01:30:18;;;;;;;6.07;4.97;;;;;;;10.90;84.64;101102.91;5095730;28;20215;-81
2021/09/29 01:32:46;;;;;;;5.90;4.67;;;;;;;10.91;84.85;101105.50;5096040;28;20232;-82
2021/09/29 01:35:14;;;;;;;11.20;6.27;;;;;;;10.92;85.00;101101.88;5098642;28;20225;-82
2021/09/29 01:37:41;;;;;;;6.27;5.40;;;;;;;10.91;84.63;101112.63;5115326;28;20227;-83
2021/09/29 01:40:11;;;;;;;5.87;4.70;;;;;;;10.86;84.70;101099.56;5115214;28;20294;-83
2021/09/29 01:42:37;;;;;;;7.23;5.10;;;;;;;10.82;84.41;101090.03;5114696;28;20533;-83
2021/09/29 01:45:06;;;;;;;5.50;4.97;;;;;;;10.78;84.40;101091.13;5074698;28;20204;-83
2021/09/29 01:47:33;;;;;;;5.00;4.50;;;;;;;10.72;84.63;101081.72;5074554;28;20588;-81
2021/09/29 01:50:01;;;;;;;10.03;5.57;;;;;;;10.69;84.49;101078.34;5075007;28;20208;-82
2021/09/29 01:52:30;;;;;;;8.03;5.30;;;;;;;10.67;84.28;101077.59;5098875;28;20248;-81
2021/09/29 01:54:57;;;;;;;8.40;4.77;;;;;;;10.64;84.52;101080.41;5094063;28;20211;-81
2021/09/29 01:57:25;;;;;;;6.70;5.47;;;;;;;10.62;84.75;101077.84;5109128;28;20234;-80
2021/09/29 01:59:52;;;;;;;5.63;4.90;;;;;;;10.59;84.57;101070.00;5115447;28;20664;-81
2021/09/29 02:02:20;;;;;;;8.40;5.33;;;;;;;10.60;84.85;101065.53;5115911;28;20209;-81
2021/09/29 02:04:47;;;;;;;8.20;5.33;;;;;;;10.61;84.93;101069.94;5109336;28;20204;-82
2021/09/29 02:07:15;;;;;;;6.97;5.20;;;;;;;10.59;84.73;101064.69;5094773;28;20231;-83
2021/09/29 02:09:41;;;;;;;6.60;5.10;;;;;;;10.59;84.81;101061.16;5095053;28;20548;-81
2021/09/29 02:12:08;;;;;;;6.10;5.47;;;;;;;10.56;84.85;101056.91;5094710;28;20654;-82
2021/09/29 02:14:35;;;;;;;5.60;4.97;;;;;;;10.54;84.77;101049.94;5095225;28;20204;-82
2021/09/29 02:17:02;;;;;;;5.97;5.10;;;;;;;10.53;85.05;101043.75;5094495;28;20595;-82
2021/09/29 02:19:30;;;;;;;7.03;5.10;;;;;;;10.53;85.12;101046.41;5094589;28;20200;-82
2021/09/29 02:21:57;;;;;;;5.87;5.03;;;;;;;10.52;85.17;101044.69;5094326;28;20223;-82
2021/09/29 02:24:24;;;;;;;10.33;4.87;;;;;;;10.52;85.39;101039.38;5094919;28;20204;-81
2021/09/29 02:26:50;;;;;;;6.40;4.73;;;;;;;10.52;85.46;101036.69;5094874;28;20240;-81
2021/09/29 02:29:17;;;;;;;6.97;4.73;;;;;;;10.54;85.46;101036.63;5093664;28;20200;-82
2021/09/29 02:31:45;;;;;;;7.97;5.00;;;;;;;10.54;85.53;101029.50;5091538;28;20223;-84
2021/09/29 02:34:11;;;;;;;5.03;4.53;;;;;;;10.53;85.79;101014.47;5097937;28;20578;-84
2021/09/29 02:36:40;;;;;;;6.43;4.53;;;;;;;10.53;85.52;101011.78;5097541;28;20219;-83
2021/09/29 02:39:07;;;;;;;5.47;4.20;;;;;;;10.51;85.70;101016.34;5105012;28;20213;-82
2021/09/29 02:41:34;;;;;;;7.87;4.33;;;;;;;10.50;85.50;101009.28;5094037;28;20200;-82
2021/09/29 02:44:00;;;;;;;7.77;4.60;;;;;;;10.48;85.64;101005.00;5094547;28;20223;-83
2021/09/29 02:46:27;;;;;;;5.17;4.67;;;;;;;10.47;85.62;101017.47;5103073;28;20705;-82
2021/09/29 02:48:54;;;;;;;8.13;5.17;;;;;;;10.46;85.85;101013.06;5113321;28;20632;-82
2021/09/29 02:51:21;;;;;;;6.73;5.80;;;;;;;10.46;85.74;101006.88;5095149;28;20204;-83
2021/09/29 02:53:48;;;;;;;7.40;5.90;;;;;;;10.45;86.10;100998.03;5095170;28;20208;-82
2021/09/29 02:56:15;;;;;;;8.20;7.40;;;;;;;10.44;85.91;101005.16;5107212;28;20224;-82
2021/09/29 02:58:42;;;;;;;9.93;7.97;;;;;;;10.43;86.11;101003.44;5093043;28;20200;-82
2021/09/29 03:01:08;;;;;;;9.93;7.30;;;;;;;10.43;86.07;101008.78;5107741;28;20686;-81
2021/09/29 03:03:35;;;;;;;7.40;6.50;;;;;;;10.42;86.24;101007.06;5113401;28;20199;-82
2021/09/29 03:06:01;;;;;;;8.70;6.13;;;;;;;10.41;85.99;101010.66;5095318;28;20196;-81
2021/09/29 03:08:28;;;;;;;9.17;6.87;;;;;;;10.39;85.87;101012.56;5093249;28;20207;-82
2021/09/29 03:10:56;;;;;;;7.83;7.03;;;;;;;10.37;86.15;101011.81;5095082;28;20195;-81
2021/09/29 03:13:23;;;;;;;10.40;9.60;;;;;;;10.37;86.32;101017.13;5094319;28;20204;-82
2021/09/29 03:15:49;;;;;;;10.93;9.67;;;;;;;10.37;86.02;101009.16;5110361;28;20568;-81
2021/09/29 03:18:17;;;;;;;6.93;6.23;;;;;;;10.40;86.51;101008.09;5114982;28;20230;-82
2021/09/29 03:20:44;;;;;;;7.70;4.77;;;;;;;10.43;86.85;100998.13;5114357;28;20666;-82
2021/09/29 03:23:11;;;;;;;4.70;4.13;;;;;;;10.46;86.76;101001.56;5114196;28;20207;-83
2021/09/29 03:25:38;;;;;;;7.17;4.03;;;;;;;10.47;86.76;101000.63;5113152;28;20208;-84
2021/09/29 03:28:07;;;;;;;6.23;4.67;;;;;;;10.49;86.93;101001.41;5094937;28;20228;-83
2021/09/29 03:30:33;;;;;;;5.90;3.77;;;;;;;10.51;86.95;100999.50;5094829;28;20215;-84
2021/09/29 03:33:00;;;;;;;4.67;3.90;;;;;;;10.53;86.90;100993.16;5103267;28;20723;-83
2021/09/29 03:35:27;;;;;;;6.20;4.20;;;;;;;10.54;87.11;100999.34;5113530;28;20199;-82
2021/09/29 03:37:54;;;;;;;6.20;4.27;;;;;;;10.54;87.05;100994.88;5114829;28;20228;-84
2021/09/29 03:40:20;;;;;;;6.80;4.80;;;;;;;10.55;87.21;100991.25;5106314;28;20201;-84
2021/09/29 03:42:47;;;;;;;6.63;4.57;;;;;;;10.55;86.81;100985.94;5104934;28;20284;-84
2021/09/29 03:45:15;;;;;;;6.03;4.27;;;;;;;10.55;86.94;100990.41;5115922;28;20200;-82
2021/09/29 03:47:43;;;;;;;5.87;4.43;;;;;;;10.54;86.77;100978.03;5114228;28;20223;-80
2021/09/29 03:50:10;;;;;;;5.73;4.83;;;;;;;10.54;86.63;100972.69;5114991;28;20646;-82
2021/09/29 03:52:37;;;;;;;6.73;4.17;;;;;;;10.53;86.74;100976.31;5114941;28;20220;-82
2021/09/29 03:55:05;;;;;;;6.03;5.03;;;;;;;10.53;87.02;100971.84;5114664;28;20204;-80
2021/09/29 03:57:31;;;;;;;4.63;3.77;;;;;;;10.51;87.12;100973.72;5115079;28;20318;-82
2021/09/29 03:59:58;;;;;;;6.30;4.03;;;;;;;10.51;86.87;100967.53;5104827;28;20208;-81
2021/09/29 04:02:26;;;;;;;6.57;4.27;;;;;;;10.49;86.62;100967.63;5089764;28;20205;-82
2021/09/29 04:04:52;;;;;;;6.30;4.80;;;;;;;10.47;86.95;100966.88;5090035;28;20208;-83
2021/09/29 04:07:19;;;;;;;6.57;5.03;;;;;;;10.48;86.77;100967.72;5086854;28;20216;-82
2021/09/29 04:09:46;;;;;;;6.03;4.20;;;;;;;10.48;86.90;100965.06;5082503;28;20576;-83
2021/09/29 04:12:13;;;;;;;6.63;4.43;;;;;;;10.47;86.85;100958.00;5081501;28;20205;-83
2021/09/29 04:14:40;;;;;;;6.00;4.83;;;;;;;10.49;87.07;100969.44;5087297;28;20607;-84
2021/09/29 04:17:07;;;;;;;5.90;5.03;;;;;;;10.48;86.93;100959.72;5079222;28;20600;-84
2021/09/29 04:19:35;;;;;;;5.23;4.30;;;;;;;10.48;87.02;100957.94;5090261;28;20226;-84
2021/09/29 04:22:01;;;;;;;4.93;4.43;;;;;;;10.47;86.87;100950.88;5084344;28;20303;-84
2021/09/29 04:24:29;;;;;;;6.67;4.57;;;;;;;10.47;86.96;100950.03;5094359;28;20203;-83
2021/09/29 04:26:55;;;;;;;6.73;4.23;;;;;;;10.47;86.79;100950.03;5087510;28;20224;-84
2021/09/29 04:29:22;;;;;;;5.93;4.20;;;;;;;10.48;87.13;100941.94;5089420;28;20647;-80
2021/09/29 04:31:49;;;;;;;4.53;4.10;;;;;;;10.46;86.59;100946.50;5080264;28;20587;-81
2021/09/29 04:34:15;;;;;;;7.93;4.33;;;;;;;10.44;86.90;100946.59;5087412;28;20548;-82
2021/09/29 04:36:46;;;;;;;6.57;4.40;;;;;;;10.41;86.96;100944.09;5090446;28;20231;-81
2021/09/29 04:39:14;;;;;;;7.00;4.83;;;;;;;10.41;86.95;100956.56;5084932;28;20220;-82
2021/09/29 04:41:40;;;;;;;7.27;4.13;;;;;;;10.39;86.76;100945.16;5089413;28;20205;-82
2021/09/29 04:44:07;;;;;;;5.77;4.27;;;;;;;10.37;87.06;100944.38;5086288;28;20201;-82
2021/09/29 04:46:34;;;;;;;5.70;4.57;;;;;;;10.37;87.00;100950.56;5090179;28;20230;-83
2021/09/29 04:49:00;;;;;;;6.90;4.83;;;;;;;10.34;86.88;100945.41;5086584;28;20223;-83
2021/09/29 04:51:27;;;;;;;5.57;4.30;;;;;;;10.33;86.74;100953.50;5087420;28;20205;-83
2021/09/29 04:53:55;;;;;;;5.70;5.10;;;;;;;10.33;86.90;100950.81;5086941;28;20205;-82
2021/09/29 04:56:22;;;;;;;5.80;4.60;;;;;;;10.32;87.18;100947.31;5084220;28;20231;-83
2021/09/29 04:58:48;;;;;;;9.47;5.17;;;;;;;10.35;87.23;100951.59;5079317;28;20291;-82
2021/09/29 05:01:15;;;;;;;8.63;5.57;;;;;;;10.36;87.28;100956.84;5086231;28;20200;-83
2021/09/29 05:03:42;;;;;;;5.63;4.63;;;;;;;10.37;87.42;100949.72;5084793;28;20558;-83
2021/09/29 05:06:09;;;;;;;6.13;4.50;;;;;;;10.38;87.26;100941.63;5082933;28;20208;-83
2021/09/29 05:08:36;;;;;;;6.57;5.10;;;;;;;10.40;87.62;100949.50;5084446;28;20200;-83
2021/09/29 05:11:09;;;;;;;7.93;5.87;;;;;;;10.43;87.57;100944.88;5084568;28;20595;-82
2021/09/29 05:13:36;;;;;;;6.13;5.53;;;;;;;10.46;87.88;100953.63;5084472;28;20196;-82
2021/09/29 05:16:03;;;;;;;8.03;5.67;;;;;;;10.48;87.83;100943.75;5085616;28;20564;-83
2021/09/29 05:18:30;;;;;;;9.77;5.40;;;;;;;10.50;87.68;100949.84;5086157;28;20224;-83
2021/09/29 05:20:57;;;;;;;9.03;5.13;;;;;;;10.50;87.90;100933.88;5085667;28;20219;-83
2021/09/29 05:23:24;;;;;;;9.40;5.90;;;;;;;10.51;87.70;100938.25;5076455;28;20239;-83
2021/09/29 05:25:50;;;;;;;8.23;6.23;;;;;;;10.52;87.89;100934.66;5098850;28;20200;-83
2021/09/29 05:28:23;;;;;;;9.60;5.93;;;;;;;10.53;87.79;100925.72;5099113;28;20226;-82
2021/09/29 05:30:49;;;;;;;9.63;7.70;;;;;;;10.54;87.97;100933.63;5094666;28;20212;-81
2021/09/29 05:33:16;;;;;;;8.20;6.87;;;;;;;10.56;87.91;100933.53;5092899;28;20200;-81
2021/09/29 05:35:43;;;;;;;10.60;7.93;;;;;;;10.58;88.17;100923.63;5096613;28;20207;-81
2021/09/29 05:38:09;;;;;;;10.27;7.53;;;;;;;10.60;88.16;100916.38;5102655;28;20225;-81
2021/09/29 05:40:36;;;;;;;11.77;8.87;;;;;;;10.62;88.25;100909.19;5093910;28;20231;-81
2021/09/29 05:43:03;;;;;;;9.07;7.77;;;;;;;10.65;88.32;100906.34;5094546;28;20295;-81
2021/09/29 05:45:30;;;;;;;8.90;7.90;;;;;;;10.68;88.22;100917.66;5094058;28;20225;-80
2021/09/29 05:47:57;;;;;;;8.70;7.00;;;;;;;10.67;88.27;100896.44;5093854;28;20227;-81
2021/09/29 05:50:24;;;;;;;8.20;7.37;;;;;;;10.65;88.20;100907.19;5094077;28;20883;-81
2021/09/29 05:52:51;;;;;;;9.30;7.90;;;;;;;10.66;88.33;100908.91;5093808;28;20204;-80
2021/09/29 05:55:18;;;;;;;11.77;7.93;;;;;;;10.68;88.11;100911.47;5094548;28;20571;-81
2021/09/29 05:57:44;;;;;;;11.17;7.40;;;;;;;10.70;88.26;100913.13;5094168;28;20599;-83
2021/09/29 06:00:12;;;;;;;10.03;8.07;;;;;;;10.71;88.41;100906.84;5092062;28;20197;-83
2021/09/29 06:02:41;;;;;;;8.70;7.63;;;;;;;10.74;88.22;100896.00;5109256;28;20574;-82
2021/09/29 06:05:08;;;;;;;9.60;7.07;;;;;;;10.76;88.53;100899.41;5105783;28;20187;-82
2021/09/29 06:07:35;;;;;;;10.67;8.27;;;;;;;10.79;88.34;100898.38;5114393;28;20215;-82
2021/09/29 06:10:02;;;;;;;10.03;7.67;;;;;;;10.82;88.62;100897.31;5114771;28;20203;-82
2021/09/29 06:12:28;;;;;;;13.33;8.50;;;;;;;10.84;88.60;100896.28;5115171;28;20668;-82
2021/09/29 06:14:55;;;;;;;11.00;8.03;;;;;;;10.87;88.54;100889.94;5114761;28;20264;-84
2021/09/29 06:17:24;;;;;;;10.30;8.67;;;;;;;10.88;88.70;100892.50;5114870;28;20270;-81
2021/09/29 06:19:53;;;;;;;11.57;8.40;;;;;;;10.92;88.31;100895.84;5113998;28;20229;-82
2021/09/29 06:22:20;;;;;;;10.73;8.83;;;;;;;10.94;88.66;100892.09;5114457;28;20211;-81
2021/09/29 06:24:47;;;;;;;11.63;9.23;;;;;;;10.97;88.75;100886.59;5114505;28;20203;-82
2021/09/29 06:27:14;;;;;;;12.07;9.33;;;;;;;11.01;88.80;100885.47;5114213;28;20215;-81
2021/09/29 06:29:40;;;;;;;10.73;9.63;;;;;;;11.05;89.02;100880.81;5114518;28;20239;-81
2021/09/29 06:32:08;;;;;;;12.20;9.77;;;;;;;11.10;89.06;100876.91;5114110;28;20211;-81
2021/09/29 06:34:34;;;;;;;13.47;11.10;;;;;;;11.16;89.03;100878.31;5114146;28;20214;-81
2021/09/29 06:37:03;;;;;;;14.37;11.23;;;;;;;11.22;89.19;100869.09;5114258;28;20254;-81
2021/09/29 06:39:29;;;;;;;13.90;10.87;;;;;;;11.27;89.10;100862.53;5113986;28;20204;-81
2021/09/29 06:41:56;;;;;;;13.73;11.20;;;;;;;11.33;89.32;100855.94;5113661;28;20230;-81
2021/09/29 06:44:24;;;;;;;15.87;11.40;;;;;;;11.38;89.10;100860.03;5113949;28;20212;-81
2021/09/29 06:46:51;;;;;;;14.10;11.50;;;;;;;11.43;89.54;100867.75;5113774;28;20225;-81
2021/09/29 06:49:17;;;;;;;16.97;11.77;;;;;;;11.51;89.67;100864.56;5113528;28;20573;-81
2021/09/29 06:51:44;;;;;;;20.33;12.80;;;;;;;11.58;89.59;100871.25;5113770;28;20683;-81
2021/09/29 06:54:12;;;;;;;15.43;12.43;;;;;;;11.65;89.92;100865.41;5113525;28;20207;-81
2021/09/29 06:56:38;;;;;;;18.00;11.77;;;;;;;11.71;89.83;100865.00;5113161;28;20237;-81
2021/09/29 06:59:05;;;;;;;16.03;12.10;;;;;;;11.79;89.93;100865.44;5113266;28;20220;-81
2021/09/29 07:01:31;;;;;;;14.57;12.00;;;;;;;11.87;89.86;100867.56;5113543;28;20227;-82
2021/09/29 07:03:58;;;;;;;15.50;11.17;;;;;;;11.96;90.02;100864.31;5114038;28;20578;-81
2021/09/29 07:06:24;;;;;;;13.13;11.67;;;;;;;12.02;89.62;100863.03;5114299;28;20229;-82
2021/09/29 07:08:51;;;;;;;14.53;10.77;;;;;;;12.09;89.38;100861.69;5113757;28;20206;-80
2021/09/29 07:11:19;;;;;;;17.10;11.77;;;;;;;12.14;89.54;100860.44;5114642;28;20555;-82
2021/09/29 07:13:46;;;;;;;12.87;11.47;;;;;;;12.22;89.14;100853.72;5114335;28;20226;-82
2021/09/29 07:16:13;;;;;;;16.43;12.53;;;;;;;12.26;89.17;100858.75;5113821;28;20211;-81
2021/09/29 07:18:41;;;;;;;24.40;12.30;;;;;;;12.30;88.68;100860.25;5113416;28;20229;-81
2021/09/29 07:21:07;;;;;;;13.07;10.80;;;;;;;12.36;88.72;100857.16;5114318;28;20235;-81
2021/09/29 07:23:34;;;;;;;17.13;10.60;;;;;;;12.43;88.88;100861.13;5113720;28;20207;-81
2021/09/29 07:26:01;;;;;;;13.37;9.43;;;;;;;12.50;88.67;100851.75;5114273;28;20661;-81
2021/09/29 07:28:29;;;;;;;9.87;7.13;;;;;;;12.58;88.38;100837.00;5113715;28;20580;-81
2021/09/29 07:30:55;;;;;;;10.33;8.00;;;;;;;12.64;88.11;100837.44;5114213;28;20215;-82
2021/09/29 07:33:22;;;;;;;9.97;7.67;;;;;;;12.72;87.58;100840.44;5114268;28;20573;-80
2021/09/29 07:35:50;;;;;;;9.77;7.53;;;;;;;12.81;87.49;100834.47;5112490;28;20207;-81
2021/09/29 07:38:17;;;;;;;9.67;7.33;;;;;;;12.93;87.47;100837.22;5088754;28;20859;-82
2021/09/29 07:40:43;;;;;;;8.80;7.23;;;;;;;13.04;87.28;100830.19;5093474;28;20210;-81
2021/09/29 07:43:10;;;;;;;11.30;7.60;;;;;;;13.15;86.64;100832.97;5109002;28;20196;-81
2021/09/29 07:45:38;;;;;;;7.97;7.13;;;;;;;13.25;86.63;100827.00;5113461;28;20204;-81
2021/09/29 07:48:05;;;;;;;9.23;7.20;;;;;;;13.33;86.05;100822.78;5112905;28;20219;-81
2021/09/29 07:50:32;;;;;;;7.80;7.00;;;;;;;13.42;85.85;100821.28;5112861;28;20685;-81
2021/09/29 07:52:59;;;;;;;8.30;6.57;;;;;;;13.48;85.17;100818.13;5114522;28;20211;-81
2021/09/29 07:55:25;;;;;;;10.23;7.20;;;;;;;13.51;84.79;100818.78;5116690;28;20213;-81
2021/09/29 07:57:52;;;;;;;12.67;7.23;;;;;;;13.55;84.32;100814.06;5116735;28;20238;-81
2021/09/29 08:00:19;;;;;;;9.20;6.40;;;;;;;13.59;84.04;100810.19;5116989;28;20560;-81
2021/09/29 08:02:47;;;;;;;6.37;5.47;;;;;;;13.62;83.39;100812.63;5116830;28;20204;-80
2021/09/29 08:05:16;;;;;;;5.73;5.00;;;;;;;13.65;83.47;100812.41;5116921;28;20673;-81
2021/09/29 08:07:43;;;;;;;5.97;4.97;;;;;;;13.70;82.67;100820.97;5116252;28;20219;-80
2021/09/29 08:10:10;;;;;;;5.47;4.97;;;;;;;13.75;82.41;100815.28;5116071;28;20233;-82
2021/09/29 08:12:37;;;;;;;6.37;4.93;;;;;;;13.79;81.89;100806.06;5116930;28;20432;-81
2021/09/29 08:15:11;;;;;;;6.93;4.27;;;;;;;13.81;81.78;100814.78;5116383;28;20570;-80
2021/09/29 08:17:38;;;;;;;5.47;3.80;;;;;;;13.84;81.69;100810.06;5116287;28;20253;-82
2021/09/29 08:20:07;;;;;;;5.63;3.63;;;;;;;13.86;81.53;100810.81;5116153;28;20207;-81
2021/09/29 08:22:34;;;;;;;6.20;3.40;;;;;;;13.89;80.60;100805.25;5116240;28;20420;-81
2021/09/29 08:25:12;;;;;;;5.67;3.77;;;;;;;13.94;80.42;100810.25;5116122;28;20208;-82
2021/09/29 08:27:47;;;;;;;5.63;3.57;;;;;;;13.96;79.93;100815.50;5116224;28;20250;-81
2021/09/29 08:30:19;;;;;;;4.30;3.40;;;;;;;14.00;79.96;100811.59;5115946;28;20194;-80
2021/09/29 08:32:51;;;;;;;5.13;3.53;;;;;;;14.03;79.38;100814.06;5116415;28;20286;-80
2021/09/29 08:35:27;;;;;;;5.33;4.30;;;;;;;14.05;78.77;100806.75;5116139;28;20203;-81
2021/09/29 08:37:59;;;;;;;4.03;3.63;;;;;;;14.08;78.85;100806.53;5116855;28;20237;-80
2021/09/29 08:40:29;;;;;;;4.00;3.50;;;;;;;14.09;78.94;100806.44;5117206;28;20205;-80
2021/09/29 08:43:18;;;;;;;4.67;3.97;;;;;;;14.13;78.95;100809.75;5117735;28;20562;-81
2021/09/29 08:45:52;;;;;;;6.80;3.70;;;;;;;14.15;78.20;100807.81;5117153;28;20251;-82
2021/09/29 08:48:29;;;;;;;4.43;3.80;;;;;;;14.13;78.09;100813.28;5116262;28;20223;-81
2021/09/29 09:15:55;;;;;;;5.30;3.40;;;;;;;14.38;77.04;100795.31;5116859;28;20191;-80
2021/09/29 09:18:22;;;;;;;3.93;3.00;;;;;;;14.41;76.29;100797.78;5112821;28;20223;-82
2021/09/29 09:20:53;;;;;;;4.03;2.90;;;;;;;14.45;76.18;100797.44;5086686;28;20569;-81
2021/09/29 09:23:33;;;;;;;4.10;3.03;;;;;;;14.48;76.01;100788.31;5084090;28;20204;-81
2021/09/29 09:26:10;;;;;;;3.67;3.37;;;;;;;14.51;76.01;100782.72;5088930;28;20226;-82
2021/09/29 09:28:37;;;;;;;4.63;3.30;;;;;;;14.54;75.87;100779.78;5088138;28;20196;-81
2021/09/29 09:31:08;;;;;;;4.50;3.53;;;;;;;14.58;75.82;100773.22;5090506;28;20598;-80
2021/09/29 09:33:50;;;;;;;4.77;3.53;;;;;;;14.63;75.62;100770.19;5088276;28;20211;-80
2021/09/29 09:36:39;;;;;;;7.13;3.10;;;;;;;14.67;75.23;100768.97;5083455;28;20196;-80
2021/09/29 09:39:10;;;;;;;3.70;2.83;;;;;;;14.71;75.55;100767.75;5081694;28;20698;-81
2021/09/29 09:41:37;;;;;;;5.97;3.20;;;;;;;14.79;75.68;100765.31;5090488;28;20196;-80
2021/09/29 09:44:06;;;;;;;3.57;2.87;;;;;;;14.93;75.64;100763.25;5086488;28;20203;-80
2021/09/29 09:46:32;;;;;;;4.00;2.87;;;;;;;15.10;75.23;100747.63;5086036;28;20232;-80
2021/09/29 09:49:02;;;;;;;3.80;3.37;;;;;;;15.26;74.46;100753.44;5082840;28;20208;-81
2021/09/29 09:51:28;;;;;;;6.40;2.90;;;;;;;15.43;74.33;100746.72;5090323;28;20249;-81
2021/09/29 09:53:57;;;;;;;3.70;2.53;;;;;;;15.60;73.60;100747.06;5093749;28;20863;-81
2021/09/29 09:56:29;;;;;;;4.13;2.30;;;;;;;15.77;72.65;100744.81;5095636;28;20220;-80
2021/09/29 09:58:56;;;;;;;3.07;2.70;;;;;;;15.87;71.70;100737.69;5091320;28;20218;-79
2021/09/29 10:01:27;;;;;;;3.03;2.27;;;;;;;15.99;71.51;100739.34;5082065;28;20209;-82
2021/09/29 10:03:54;;;;;;;4.73;2.30;;;;;;;16.14;70.73;100745.25;5083034;28;20754;-80
2021/09/29 10:06:22;;;;;;;4.30;2.47;;;;;;;16.26;69.91;100733.47;5088102;28;20211;-81
2021/09/29 10:08:55;;;;;;;4.93;2.27;;;;;;;16.42;68.67;100738.38;5087024;28;20259;-81
2021/09/29 10:11:25;;;;;;;3.60;2.30;;;;;;;16.58;68.88;100734.22;5095042;28;20197;-82
2021/09/29 10:14:12;;;;;;;2.43;2.17;;;;;;;16.78;68.61;100734.34;5092154;28;20228;-82
2021/09/29 10:27:53;;;;;;;3.67;1.70;;;;;;;17.44;63.46;100694.31;5087175;28;20817;-81
2021/09/29 10:30:29;;;;;;;5.03;1.90;;;;;;;17.55;62.84;100697.72;5087468;28;20211;-81
2021/09/29 10:33:03;;;;;;;2.70;1.60;;;;;;;17.68;63.15;100697.47;5082010;28;20232;-80
2021/09/29 10:35:41;;;;;;;4.17;1.40;;;;;;;17.79;61.83;100688.38;5085944;28;20206;-81
2021/09/29 10:41:00;;;;;;;1.83;1.20;;;;;;;17.91;59.91;100688.13;5081170;28;20213;-81
2021/09/29 10:43:31;;;;;;;2.10;1.20;;;;;;;17.98;59.77;100673.06;5084680;28;20278;-81
2021/09/29 10:46:06;;;;;;;3.10;1.43;;;;;;;18.09;59.42;100684.69;5081121;28;20294;-82
2021/09/29 11:08:46;;;;;;;3.43;1.23;;;;;;;18.61;55.72;100680.59;5078890;28;20228;-82
2021/09/29 11:28:02;;;;;;;3.53;1.33;;;;;;;18.47;53.64;100663.00;5090289;28;20252;-82
2021/09/29 11:30:32;;;;;;;2.97;1.10;;;;;;;18.44;53.87;100660.63;5089742;28;20209;-81
2021/09/29 11:33:02;;;;;;;2.17;1.30;;;;;;;18.45;54.10;100653.38;5086667;28;20207;-82
2021/09/29 11:35:50;;;;;;;1.93;1.00;;;;;;;18.44;54.25;100655.22;5090214;28;20210;-82
2021/09/29 11:38:39;;;;;;;3.37;1.53;;;;;;;18.44;54.87;100649.84;5090594;28;20228;-81
2021/09/29 12:08:45;;;;;;;4.40;1.23;;;;;;;18.63;56.10;100612.00;5092424;28;20204;-82
2021/09/29 12:11:19;;;;;;;3.13;1.10;;;;;;;18.59;55.83;100618.72;5083674;28;20206;-82
2021/09/29 12:13:49;;;;;;;3.13;1.30;;;;;;;18.54;55.60;100607.47;5087200;28;20716;-81
2021/09/29 12:16:26;;;;;;;3.43;1.20;;;;;;;18.53;55.75;100615.72;5084285;28;20197;-82
2021/09/29 12:18:56;;;;;;;3.53;1.20;;;;;;;18.58;55.34;100613.44;5087601;28;20211;-82
2021/09/29 12:21:32;;;;;;;2.70;0.90;;;;;;;18.65;54.82;100611.84;5081834;28;20206;-81
2021/09/29 12:24:00;;;;;;;3.87;0.90;;;;;;;18.72;54.61;100618.34;5083678;28;20206;-81
2021/09/29 12:26:29;;;;;;;3.00;0.87;;;;;;;18.80;54.40;100604.13;5086568;28;20309;-81
2021/09/29 12:29:10;;;;;;;4.50;1.60;;;;;;;18.85;54.01;100608.03;5094280;28;20236;-82
2021/09/29 12:31:51;;;;;;;3.07;0.87;;;;;;;18.89;53.02;100595.94;5092483;28;20220;-81
2021/09/29 12:34:27;;;;;;;3.83;1.00;;;;;;;18.92;53.19;100608.28;5090155;28;20205;-82
2021/09/29 12:36:54;;;;;;;2.77;0.80;;;;;;;18.98;52.08;100595.06;5087709;28;20249;-82
2021/09/29 12:39:25;;;;;;;3.33;0.80;;;;;;;18.98;51.99;100599.59;5085584;28;20240;-81
2021/09/29 12:41:53;;;;;;;2.70;0.93;;;;;;;18.94;51.27;100596.34;5088654;28;20206;-82
2021/09/29 12:44:20;;;;;;;2.57;1.03;;;;;;;18.95;51.95;100591.81;5088280;28;20660;-81
2021/09/29 12:46:51;;;;;;;1.27;0.83;;;;;;;19.04;51.41;100604.38;5089978;28;20256;-82
2021/09/29 12:49:19;;;;;;;2.47;0.90;;;;;;;19.01;51.97;100601.97;5090423;28;20954;-82
2021/09/29 12:51:53;;;;;;;1.17;0.83;;;;;;;19.05;52.19;100597.97;5085884;28;20242;-81
2021/09/29 12:54:21;;;;;;;1.00;0.60;;;;;;;19.05;52.09;100597.97;5086321;28;20284;-81
2021/09/29 12:56:49;;;;;;;2.77;0.70;;;;;;;19.06;52.17;100597.81;5087572;28;20285;-81
2021/09/29 12:59:16;;;;;;;4.70;1.03;;;;;;;19.07;52.17;100586.03;5083889;28;20228;-82
2021/09/29 13:01:43;;;;;;;1.23;0.70;;;;;;;19.13;52.11;100589.13;5089893;28;20317;-81
2021/09/29 13:04:09;;;;;;;1.10;0.80;;;;;;;19.14;52.54;100593.53;5084076;28;20207;-82
2021/09/29 13:06:36;;;;;;;1.83;0.90;;;;;;;19.13;52.64;100584.56;5086762;28;20221;-82
2021/09/29 13:09:02;;;;;;;3.80;0.90;;;;;;;19.11;52.84;100593.81;5082037;28;20225;-80
2021/09/29 13:11:29;;;;;;;2.80;0.80;;;;;;;19.11;52.91;100586.56;5087211;28;20209;-81
2021/09/29 13:13:57;;;;;;;1.33;0.90;;;;;;;19.12;53.24;100580.16;5085321;28;20206;-81